sensor_id;sensor_type;location;lat;lon;timestamp;P1;durP1;ratioP1;P2;durP2;ratioP2
14799;SDS011;7491;57.750;11.970;2024-02-21T00:00:17;57.28;;;8.00;;
14799;SDS011;7491;57.750;11.970;2024-02-21T00:02:44;45.08;;;7.05;;
14799;SDS011;7491;57.750;11.970;2024-02-21T00:05:12;57.25;;;10.95;;
14799;SDS011;7491;57.750;11.970;2024-02-21T00:07:39;52.85;;;9.05;;
14799;SDS011;7491;57.750;11.970;2024-02-21T00:10:06;51.85;;;8.40;;
14799;SDS011;7491;57.750;11.970;2024-02-21T00:12:34;49.97;;;7.10;;
14799;SDS011;7491;57.750;11.970;2024-02-21T00:15:00;55.88;;;9.80;;
14799;SDS011;7491;57.750;11.970;2024-02-21T00:17:28;57.53;;;9.55;;
14799;SDS011;7491;57.750;11.970;2024-02-21T00:19:54;57.92;;;8.80;;
14799;SDS011;7491;57.750;11.970;2024-02-21T00:22:22;51.40;;;8.27;;
14799;SDS011;7491;57.750;11.970;2024-02-21T00:24:50;48.47;;;10.13;;
14799;SDS011;7491;57.750;11.970;2024-02-21T00:27:16;43.65;;;8.27;;
14799;SDS011;7491;57.750;11.970;2024-02-21T00:29:43;57.45;;;11.55;;
14799;SDS011;7491;57.750;11.970;2024-02-21T00:32:09;56.30;;;9.18;;
14799;SDS011;7491;57.750;11.970;2024-02-21T00:34:36;44.83;;;8.50;;
14799;SDS011;7491;57.750;11.970;2024-02-21T00:37:03;45.88;;;8.25;;
14799;SDS011;7491;57.750;11.970;2024-02-21T00:39:31;62.17;;;9.50;;
14799;SDS011;7491;57.750;11.970;2024-02-21T00:41:58;45.03;;;6.55;;
14799;SDS011;7491;57.750;11.970;2024-02-21T00:44:24;51.30;;;8.20;;
14799;SDS011;7491;57.750;11.970;2024-02-21T00:46:51;50.53;;;8.98;;
14799;SDS011;7491;57.750;11.970;2024-02-21T00:49:18;47.53;;;9.57;;
14799;SDS011;7491;57.750;11.970;2024-02-21T00:51:45;45.40;;;7.47;;
14799;SDS011;7491;57.750;11.970;2024-02-21T00:54:11;42.20;;;8.18;;
14799;SDS011;7491;57.750;11.970;2024-02-21T00:56:39;42.10;;;9.25;;
14799;SDS011;7491;57.750;11.970;2024-02-21T00:59:06;31.75;;;7.07;;
14799;SDS011;7491;57.750;11.970;2024-02-21T01:01:33;26.02;;;6.05;;
14799;SDS011;7491;57.750;11.970;2024-02-21T01:03:59;34.53;;;6.22;;
14799;SDS011;7491;57.750;11.970;2024-02-21T01:06:26;38.90;;;7.25;;
14799;SDS011;7491;57.750;11.970;2024-02-21T01:08:53;37.78;;;8.15;;
14799;SDS011;7491;57.750;11.970;2024-02-21T01:11:19;43.20;;;8.65;;
14799;SDS011;7491;57.750;11.970;2024-02-21T01:13:47;41.35;;;8.60;;
14799;SDS011;7491;57.750;11.970;2024-02-21T01:16:14;51.38;;;9.70;;
14799;SDS011;7491;57.750;11.970;2024-02-21T01:18:41;56.20;;;11.95;;
14799;SDS011;7491;57.750;11.970;2024-02-21T01:21:07;52.92;;;8.68;;
14799;SDS011;7491;57.750;11.970;2024-02-21T01:23:35;50.22;;;9.10;;
14799;SDS011;7491;57.750;11.970;2024-02-21T01:26:02;47.63;;;8.57;;
14799;SDS011;7491;57.750;11.970;2024-02-21T01:28:29;48.50;;;8.02;;
14799;SDS011;7491;57.750;11.970;2024-02-21T01:30:58;44.13;;;7.47;;
14799;SDS011;7491;57.750;11.970;2024-02-21T01:33:24;49.45;;;8.25;;
14799;SDS011;7491;57.750;11.970;2024-02-21T01:35:51;35.72;;;7.00;;
14799;SDS011;7491;57.750;11.970;2024-02-21T01:38:18;33.60;;;7.20;;
14799;SDS011;7491;57.750;11.970;2024-02-21T01:40:45;31.85;;;6.55;;
14799;SDS011;7491;57.750;11.970;2024-02-21T01:43:15;26.63;;;6.03;;
14799;SDS011;7491;57.750;11.970;2024-02-21T01:45:43;22.75;;;5.93;;
14799;SDS011;7491;57.750;11.970;2024-02-21T01:48:14;19.52;;;5.38;;
14799;SDS011;7491;57.750;11.970;2024-02-21T01:50:41;21.95;;;5.07;;
14799;SDS011;7491;57.750;11.970;2024-02-21T01:53:11;20.27;;;4.47;;
14799;SDS011;7491;57.750;11.970;2024-02-21T01:55:42;20.35;;;5.38;;
14799;SDS011;7491;57.750;11.970;2024-02-21T01:58:10;19.75;;;5.07;;
14799;SDS011;7491;57.750;11.970;2024-02-21T02:00:37;26.27;;;5.03;;
14799;SDS011;7491;57.750;11.970;2024-02-21T02:03:06;26.98;;;5.35;;
14799;SDS011;7491;57.750;11.970;2024-02-21T02:05:36;23.88;;;5.28;;
14799;SDS011;7491;57.750;11.970;2024-02-21T02:08:03;17.63;;;4.05;;
14799;SDS011;7491;57.750;11.970;2024-02-21T02:10:30;19.13;;;5.53;;
14799;SDS011;7491;57.750;11.970;2024-02-21T02:12:57;19.98;;;4.45;;
14799;SDS011;7491;57.750;11.970;2024-02-21T02:15:23;12.90;;;4.38;;
14799;SDS011;7491;57.750;11.970;2024-02-21T02:17:50;17.25;;;4.82;;
14799;SDS011;7491;57.750;11.970;2024-02-21T02:20:17;18.15;;;4.90;;
14799;SDS011;7491;57.750;11.970;2024-02-21T02:22:45;15.48;;;4.75;;
14799;SDS011;7491;57.750;11.970;2024-02-21T02:25:14;19.65;;;5.65;;
14799;SDS011;7491;57.750;11.970;2024-02-21T02:27:41;14.60;;;4.43;;
14799;SDS011;7491;57.750;11.970;2024-02-21T02:30:10;19.27;;;5.03;;
14799;SDS011;7491;57.750;11.970;2024-02-21T02:32:38;21.03;;;7.37;;
14799;SDS011;7491;57.750;11.970;2024-02-21T02:35:04;18.90;;;6.05;;
14799;SDS011;7491;57.750;11.970;2024-02-21T02:37:31;19.85;;;5.90;;
14799;SDS011;7491;57.750;11.970;2024-02-21T02:39:58;28.02;;;7.53;;
14799;SDS011;7491;57.750;11.970;2024-02-21T02:42:26;21.52;;;6.30;;
14799;SDS011;7491;57.750;11.970;2024-02-21T02:44:53;19.73;;;5.57;;
14799;SDS011;7491;57.750;11.970;2024-02-21T02:47:20;18.23;;;5.05;;
14799;SDS011;7491;57.750;11.970;2024-02-21T02:49:46;19.63;;;5.57;;
14799;SDS011;7491;57.750;11.970;2024-02-21T02:52:15;22.10;;;5.93;;
14799;SDS011;7491;57.750;11.970;2024-02-21T02:54:43;16.73;;;5.95;;
14799;SDS011;7491;57.750;11.970;2024-02-21T02:57:09;26.70;;;8.55;;
14799;SDS011;7491;57.750;11.970;2024-02-21T02:59:37;22.55;;;7.05;;
14799;SDS011;7491;57.750;11.970;2024-02-21T03:02:04;22.70;;;6.18;;
14799;SDS011;7491;57.750;11.970;2024-02-21T03:04:31;19.40;;;5.97;;
14799;SDS011;7491;57.750;11.970;2024-02-21T03:06:58;22.55;;;6.50;;
14799;SDS011;7491;57.750;11.970;2024-02-21T03:09:24;13.85;;;5.57;;
14799;SDS011;7491;57.750;11.970;2024-02-21T03:11:51;20.80;;;5.75;;
14799;SDS011;7491;57.750;11.970;2024-02-21T03:14:22;18.55;;;5.60;;
14799;SDS011;7491;57.750;11.970;2024-02-21T03:16:52;15.98;;;5.25;;
14799;SDS011;7491;57.750;11.970;2024-02-21T03:19:19;13.82;;;4.97;;
14799;SDS011;7491;57.750;11.970;2024-02-21T03:21:46;16.30;;;7.55;;
14799;SDS011;7491;57.750;11.970;2024-02-21T03:24:15;13.82;;;5.05;;
14799;SDS011;7491;57.750;11.970;2024-02-21T03:26:43;12.70;;;4.80;;
14799;SDS011;7491;57.750;11.970;2024-02-21T03:29:10;11.15;;;4.13;;
14799;SDS011;7491;57.750;11.970;2024-02-21T03:31:37;14.40;;;4.80;;
14799;SDS011;7491;57.750;11.970;2024-02-21T03:34:05;8.95;;;4.30;;
14799;SDS011;7491;57.750;11.970;2024-02-21T03:36:32;12.65;;;3.83;;
14799;SDS011;7491;57.750;11.970;2024-02-21T03:38:59;7.63;;;4.10;;
14799;SDS011;7491;57.750;11.970;2024-02-21T03:41:26;8.40;;;3.97;;
14799;SDS011;7491;57.750;11.970;2024-02-21T03:43:53;9.85;;;2.90;;
14799;SDS011;7491;57.750;11.970;2024-02-21T03:46:20;8.90;;;3.10;;
14799;SDS011;7491;57.750;11.970;2024-02-21T03:48:46;9.18;;;2.55;;
14799;SDS011;7491;57.750;11.970;2024-02-21T03:51:15;5.63;;;2.40;;
14799;SDS011;7491;57.750;11.970;2024-02-21T03:53:41;7.30;;;2.22;;
14799;SDS011;7491;57.750;11.970;2024-02-21T03:56:08;3.13;;;1.90;;
14799;SDS011;7491;57.750;11.970;2024-02-21T03:58:35;4.32;;;1.67;;
14799;SDS011;7491;57.750;11.970;2024-02-21T04:01:02;5.45;;;1.75;;
14799;SDS011;7491;57.750;11.970;2024-02-21T04:03:30;2.50;;;1.80;;
14799;SDS011;7491;57.750;11.970;2024-02-21T04:05:57;5.10;;;2.10;;
14799;SDS011;7491;57.750;11.970;2024-02-21T04:08:25;4.03;;;1.85;;
14799;SDS011;7491;57.750;11.970;2024-02-21T04:10:52;2.03;;;1.80;;
14799;SDS011;7491;57.750;11.970;2024-02-21T04:13:19;1.80;;;1.70;;
14799;SDS011;7491;57.750;11.970;2024-02-21T04:15:47;2.60;;;1.73;;
14799;SDS011;7491;57.750;11.970;2024-02-21T04:18:13;3.22;;;1.90;;
14799;SDS011;7491;57.750;11.970;2024-02-21T04:20:41;3.90;;;1.80;;
14799;SDS011;7491;57.750;11.970;2024-02-21T04:23:07;6.72;;;1.80;;
14799;SDS011;7491;57.750;11.970;2024-02-21T04:25:35;2.85;;;1.77;;
14799;SDS011;7491;57.750;11.970;2024-02-21T04:28:02;4.82;;;1.88;;
14799;SDS011;7491;57.750;11.970;2024-02-21T04:30:29;2.45;;;2.25;;
14799;SDS011;7491;57.750;11.970;2024-02-21T04:32:56;3.38;;;2.10;;
14799;SDS011;7491;57.750;11.970;2024-02-21T04:35:23;4.20;;;2.55;;
14799;SDS011;7491;57.750;11.970;2024-02-21T04:37:49;3.13;;;2.40;;
14799;SDS011;7491;57.750;11.970;2024-02-21T04:40:16;5.32;;;2.13;;
14799;SDS011;7491;57.750;11.970;2024-02-21T04:42:44;5.18;;;2.42;;
14799;SDS011;7491;57.750;11.970;2024-02-21T04:45:11;3.50;;;2.28;;
14799;SDS011;7491;57.750;11.970;2024-02-21T04:47:38;3.65;;;2.10;;
14799;SDS011;7491;57.750;11.970;2024-02-21T04:50:05;5.28;;;2.22;;
14799;SDS011;7491;57.750;11.970;2024-02-21T04:52:32;4.40;;;2.00;;
14799;SDS011;7491;57.750;11.970;2024-02-21T04:54:59;3.67;;;2.30;;
14799;SDS011;7491;57.750;11.970;2024-02-21T04:57:25;4.05;;;2.10;;
14799;SDS011;7491;57.750;11.970;2024-02-21T04:59:54;5.78;;;2.72;;
14799;SDS011;7491;57.750;11.970;2024-02-21T05:02:20;4.25;;;2.95;;
14799;SDS011;7491;57.750;11.970;2024-02-21T05:04:49;6.53;;;2.67;;
14799;SDS011;7491;57.750;11.970;2024-02-21T05:07:16;5.35;;;3.00;;
14799;SDS011;7491;57.750;11.970;2024-02-21T05:09:44;7.53;;;2.92;;
14799;SDS011;7491;57.750;11.970;2024-02-21T05:12:11;5.47;;;3.33;;
14799;SDS011;7491;57.750;11.970;2024-02-21T05:14:37;4.97;;;3.05;;
14799;SDS011;7491;57.750;11.970;2024-02-21T05:17:05;6.35;;;3.03;;
14799;SDS011;7491;57.750;11.970;2024-02-21T05:19:32;6.75;;;3.38;;
14799;SDS011;7491;57.750;11.970;2024-02-21T05:21:59;7.68;;;3.20;;
14799;SDS011;7491;57.750;11.970;2024-02-21T05:24:26;6.10;;;3.15;;
14799;SDS011;7491;57.750;11.970;2024-02-21T05:26:53;6.63;;;2.67;;
14799;SDS011;7491;57.750;11.970;2024-02-21T05:29:20;7.45;;;2.50;;
14799;SDS011;7491;57.750;11.970;2024-02-21T05:31:56;4.97;;;2.33;;
14799;SDS011;7491;57.750;11.970;2024-02-21T05:34:25;5.72;;;2.53;;
14799;SDS011;7491;57.750;11.970;2024-02-21T05:36:51;9.20;;;2.65;;
14799;SDS011;7491;57.750;11.970;2024-02-21T05:39:18;10.48;;;3.38;;
14799;SDS011;7491;57.750;11.970;2024-02-21T05:41:47;10.57;;;3.08;;
14799;SDS011;7491;57.750;11.970;2024-02-21T05:44:15;9.05;;;3.25;;
14799;SDS011;7491;57.750;11.970;2024-02-21T05:46:41;6.55;;;2.60;;
14799;SDS011;7491;57.750;11.970;2024-02-21T05:49:08;10.73;;;3.20;;
14799;SDS011;7491;57.750;11.970;2024-02-21T05:51:36;7.32;;;2.50;;
14799;SDS011;7491;57.750;11.970;2024-02-21T05:54:03;8.70;;;2.75;;
14799;SDS011;7491;57.750;11.970;2024-02-21T05:56:30;11.05;;;2.78;;
14799;SDS011;7491;57.750;11.970;2024-02-21T05:58:57;17.42;;;2.78;;
14799;SDS011;7491;57.750;11.970;2024-02-21T06:01:24;12.23;;;2.53;;
14799;SDS011;7491;57.750;11.970;2024-02-21T06:03:50;5.25;;;2.17;;
14799;SDS011;7491;57.750;11.970;2024-02-21T06:06:17;13.35;;;2.63;;
14799;SDS011;7491;57.750;11.970;2024-02-21T06:08:45;12.93;;;2.53;;
14799;SDS011;7491;57.750;11.970;2024-02-21T06:11:12;9.95;;;2.60;;
14799;SDS011;7491;57.750;11.970;2024-02-21T06:13:40;20.15;;;2.92;;
14799;SDS011;7491;57.750;11.970;2024-02-21T06:16:07;8.13;;;2.38;;
14799;SDS011;7491;57.750;11.970;2024-02-21T06:18:35;9.73;;;2.25;;
14799;SDS011;7491;57.750;11.970;2024-02-21T06:21:03;10.65;;;2.35;;
14799;SDS011;7491;57.750;11.970;2024-02-21T06:23:30;14.35;;;2.60;;
14799;SDS011;7491;57.750;11.970;2024-02-21T06:25:58;7.60;;;2.10;;
14799;SDS011;7491;57.750;11.970;2024-02-21T06:28:25;5.95;;;2.33;;
14799;SDS011;7491;57.750;11.970;2024-02-21T06:30:52;5.30;;;2.10;;
14799;SDS011;7491;57.750;11.970;2024-02-21T06:33:19;6.88;;;2.22;;
14799;SDS011;7491;57.750;11.970;2024-02-21T06:35:49;6.18;;;2.08;;
14799;SDS011;7491;57.750;11.970;2024-02-21T06:38:18;9.30;;;2.90;;
14799;SDS011;7491;57.750;11.970;2024-02-21T06:40:44;9.45;;;2.05;;
14799;SDS011;7491;57.750;11.970;2024-02-21T06:43:16;7.28;;;2.22;;
14799;SDS011;7491;57.750;11.970;2024-02-21T06:45:44;6.78;;;1.83;;
14799;SDS011;7491;57.750;11.970;2024-02-21T06:48:12;3.78;;;1.70;;
14799;SDS011;7491;57.750;11.970;2024-02-21T06:50:39;5.25;;;2.17;;
14799;SDS011;7491;57.750;11.970;2024-02-21T06:53:06;4.25;;;1.88;;
14799;SDS011;7491;57.750;11.970;2024-02-21T06:55:32;6.65;;;1.83;;
14799;SDS011;7491;57.750;11.970;2024-02-21T06:57:59;3.58;;;2.10;;
14799;SDS011;7491;57.750;11.970;2024-02-21T07:00:28;6.93;;;2.20;;
14799;SDS011;7491;57.750;11.970;2024-02-21T07:02:54;6.63;;;2.47;;
14799;SDS011;7491;57.750;11.970;2024-02-21T07:05:21;5.93;;;1.80;;
14799;SDS011;7491;57.750;11.970;2024-02-21T07:07:49;3.20;;;1.55;;
14799;SDS011;7491;57.750;11.970;2024-02-21T07:10:16;4.10;;;1.70;;
14799;SDS011;7491;57.750;11.970;2024-02-21T07:12:43;3.90;;;1.60;;
14799;SDS011;7491;57.750;11.970;2024-02-21T07:15:09;3.42;;;1.55;;
14799;SDS011;7491;57.750;11.970;2024-02-21T07:17:38;2.13;;;1.15;;
14799;SDS011;7491;57.750;11.970;2024-02-21T07:20:05;1.77;;;1.52;;
14799;SDS011;7491;57.750;11.970;2024-02-21T07:22:32;4.57;;;1.65;;
14799;SDS011;7491;57.750;11.970;2024-02-21T07:24:59;2.40;;;1.55;;
14799;SDS011;7491;57.750;11.970;2024-02-21T07:27:26;4.90;;;2.10;;
14799;SDS011;7491;57.750;11.970;2024-02-21T07:29:55;3.38;;;1.50;;
14799;SDS011;7491;57.750;11.970;2024-02-21T07:32:22;3.65;;;1.80;;
14799;SDS011;7491;57.750;11.970;2024-02-21T07:34:50;3.65;;;1.70;;
14799;SDS011;7491;57.750;11.970;2024-02-21T07:37:17;2.33;;;1.45;;
14799;SDS011;7491;57.750;11.970;2024-02-21T07:39:43;3.45;;;2.03;;
14799;SDS011;7491;57.750;11.970;2024-02-21T07:42:10;5.13;;;1.73;;
14799;SDS011;7491;57.750;11.970;2024-02-21T07:44:37;3.47;;;1.85;;
14799;SDS011;7491;57.750;11.970;2024-02-21T07:47:03;2.65;;;1.98;;
14799;SDS011;7491;57.750;11.970;2024-02-21T07:49:32;3.70;;;2.20;;
14799;SDS011;7491;57.750;11.970;2024-02-21T07:52:01;7.53;;;2.10;;
14799;SDS011;7491;57.750;11.970;2024-02-21T07:54:28;2.90;;;1.90;;
14799;SDS011;7491;57.750;11.970;2024-02-21T07:56:55;3.13;;;2.00;;
14799;SDS011;7491;57.750;11.970;2024-02-21T07:59:21;2.50;;;1.90;;
14799;SDS011;7491;57.750;11.970;2024-02-21T08:01:48;4.60;;;2.10;;
14799;SDS011;7491;57.750;11.970;2024-02-21T08:04:15;4.05;;;2.40;;
14799;SDS011;7491;57.750;11.970;2024-02-21T08:06:41;3.88;;;2.25;;
14799;SDS011;7491;57.750;11.970;2024-02-21T08:09:09;5.95;;;2.33;;
14799;SDS011;7491;57.750;11.970;2024-02-21T08:11:36;4.57;;;2.45;;
14799;SDS011;7491;57.750;11.970;2024-02-21T08:14:03;4.63;;;2.38;;
14799;SDS011;7491;57.750;11.970;2024-02-21T08:16:29;5.07;;;1.70;;
14799;SDS011;7491;57.750;11.970;2024-02-21T08:18:56;3.45;;;1.33;;
14799;SDS011;7491;57.750;11.970;2024-02-21T08:21:24;4.18;;;1.60;;
14799;SDS011;7491;57.750;11.970;2024-02-21T08:23:51;4.97;;;2.03;;
14799;SDS011;7491;57.750;11.970;2024-02-21T08:26:20;2.00;;;1.38;;
14799;SDS011;7491;57.750;11.970;2024-02-21T08:28:47;5.00;;;1.52;;
14799;SDS011;7491;57.750;11.970;2024-02-21T08:31:18;4.43;;;1.48;;
14799;SDS011;7491;57.750;11.970;2024-02-21T08:33:45;3.55;;;1.52;;
14799;SDS011;7491;57.750;11.970;2024-02-21T08:36:16;2.22;;;1.42;;
14799;SDS011;7491;57.750;11.970;2024-02-21T08:38:44;4.05;;;1.50;;
14799;SDS011;7491;57.750;11.970;2024-02-21T08:41:11;2.80;;;1.77;;
14799;SDS011;7491;57.750;11.970;2024-02-21T08:43:39;3.22;;;1.60;;
14799;SDS011;7491;57.750;11.970;2024-02-21T08:46:05;4.90;;;1.55;;
14799;SDS011;7491;57.750;11.970;2024-02-21T08:48:32;2.28;;;1.33;;
14799;SDS011;7491;57.750;11.970;2024-02-21T08:50:59;1.60;;;1.50;;
14799;SDS011;7491;57.750;11.970;2024-02-21T08:53:25;3.80;;;3.08;;
14799;SDS011;7491;57.750;11.970;2024-02-21T08:55:52;1.48;;;1.38;;
14799;SDS011;7491;57.750;11.970;2024-02-21T08:58:19;2.15;;;1.30;;
14799;SDS011;7491;57.750;11.970;2024-02-21T09:00:49;1.85;;;1.75;;
14799;SDS011;7491;57.750;11.970;2024-02-21T09:03:16;4.63;;;2.90;;
14799;SDS011;7491;57.750;11.970;2024-02-21T09:05:45;2.60;;;1.70;;
14799;SDS011;7491;57.750;11.970;2024-02-21T09:08:11;3.20;;;2.63;;
14799;SDS011;7491;57.750;11.970;2024-02-21T09:10:39;1.25;;;1.02;;
14799;SDS011;7491;57.750;11.970;2024-02-21T09:13:06;1.20;;;1.20;;
14799;SDS011;7491;57.750;11.970;2024-02-21T09:15:33;3.00;;;1.42;;
14799;SDS011;7491;57.750;11.970;2024-02-21T09:18:02;2.72;;;1.10;;
14799;SDS011;7491;57.750;11.970;2024-02-21T09:20:29;7.75;;;1.95;;
14799;SDS011;7491;57.750;11.970;2024-02-21T09:22:56;47.25;;;4.28;;
14799;SDS011;7491;57.750;11.970;2024-02-21T09:25:23;53.03;;;3.80;;
14799;SDS011;7491;57.750;11.970;2024-02-21T09:27:49;151.10;;;6.82;;
14799;SDS011;7491;57.750;11.970;2024-02-21T09:30:17;138.20;;;7.65;;
14799;SDS011;7491;57.750;11.970;2024-02-21T09:32:44;211.93;;;9.05;;
14799;SDS011;7491;57.750;11.970;2024-02-21T09:35:12;176.50;;;8.60;;
14799;SDS011;7491;57.750;11.970;2024-02-21T09:37:39;210.93;;;9.05;;
14799;SDS011;7491;57.750;11.970;2024-02-21T09:40:06;153.38;;;6.85;;
14799;SDS011;7491;57.750;11.970;2024-02-21T09:42:36;193.00;;;8.32;;
14799;SDS011;7491;57.750;11.970;2024-02-21T09:45:04;225.40;;;9.85;;
14799;SDS011;7491;57.750;11.970;2024-02-21T09:47:38;127.70;;;6.45;;
14799;SDS011;7491;57.750;11.970;2024-02-21T09:50:10;228.10;;;10.45;;
14799;SDS011;7491;57.750;11.970;2024-02-21T09:52:39;158.68;;;7.13;;
14799;SDS011;7491;57.750;11.970;2024-02-21T09:55:07;183.02;;;9.43;;
14799;SDS011;7491;57.750;11.970;2024-02-21T09:57:37;139.25;;;6.97;;
14799;SDS011;7491;57.750;11.970;2024-02-21T10:00:05;219.77;;;10.50;;
14799;SDS011;7491;57.750;11.970;2024-02-21T10:02:33;133.80;;;7.63;;
14799;SDS011;7491;57.750;11.970;2024-02-21T10:05:00;150.55;;;8.43;;
14799;SDS011;7491;57.750;11.970;2024-02-21T10:07:30;158.70;;;9.23;;
14799;SDS011;7491;57.750;11.970;2024-02-21T10:10:00;150.25;;;8.80;;
14799;SDS011;7491;57.750;11.970;2024-02-21T10:12:28;25.02;;;2.97;;
14799;SDS011;7491;57.750;11.970;2024-02-21T10:14:59;114.95;;;6.38;;
14799;SDS011;7491;57.750;11.970;2024-02-21T10:17:26;181.05;;;8.55;;
14799;SDS011;7491;57.750;11.970;2024-02-21T10:19:53;72.13;;;4.68;;
14799;SDS011;7491;57.750;11.970;2024-02-21T10:22:20;157.10;;;8.43;;
14799;SDS011;7491;57.750;11.970;2024-02-21T10:24:48;175.93;;;9.48;;
14799;SDS011;7491;57.750;11.970;2024-02-21T10:27:15;113.75;;;6.10;;
14799;SDS011;7491;57.750;11.970;2024-02-21T10:29:41;82.55;;;4.65;;
14799;SDS011;7491;57.750;11.970;2024-02-21T10:32:08;49.15;;;4.00;;
14799;SDS011;7491;57.750;11.970;2024-02-21T10:34:37;34.55;;;3.63;;
14799;SDS011;7491;57.750;11.970;2024-02-21T10:37:05;43.15;;;2.90;;
14799;SDS011;7491;57.750;11.970;2024-02-21T10:39:33;36.28;;;3.08;;
14799;SDS011;7491;57.750;11.970;2024-02-21T10:42:02;28.35;;;3.78;;
14799;SDS011;7491;57.750;11.970;2024-02-21T10:44:30;19.60;;;2.17;;
14799;SDS011;7491;57.750;11.970;2024-02-21T10:46:58;85.93;;;5.53;;
14799;SDS011;7491;57.750;11.970;2024-02-21T10:49:25;96.55;;;5.57;;
14799;SDS011;7491;57.750;11.970;2024-02-21T10:51:54;104.82;;;5.22;;
14799;SDS011;7491;57.750;11.970;2024-02-21T10:54:37;42.05;;;3.53;;
14799;SDS011;7491;57.750;11.970;2024-02-21T10:57:10;69.10;;;5.43;;
14799;SDS011;7491;57.750;11.970;2024-02-21T10:59:40;99.15;;;6.25;;
14799;SDS011;7491;57.750;11.970;2024-02-21T11:02:07;133.45;;;7.18;;
14799;SDS011;7491;57.750;11.970;2024-02-21T11:04:34;250.52;;;11.15;;
14799;SDS011;7491;57.750;11.970;2024-02-21T11:07:02;158.18;;;8.82;;
14799;SDS011;7491;57.750;11.970;2024-02-21T11:09:30;339.83;;;15.82;;
14799;SDS011;7491;57.750;11.970;2024-02-21T11:11:58;146.73;;;8.65;;
14799;SDS011;7491;57.750;11.970;2024-02-21T11:14:27;140.82;;;8.85;;
14799;SDS011;7491;57.750;11.970;2024-02-21T11:16:57;241.13;;;12.77;;
14799;SDS011;7491;57.750;11.970;2024-02-21T11:19:24;66.15;;;7.43;;
14799;SDS011;7491;57.750;11.970;2024-02-21T11:21:53;25.85;;;7.20;;
14799;SDS011;7491;57.750;11.970;2024-02-21T11:24:28;28.25;;;8.10;;
14799;SDS011;7491;57.750;11.970;2024-02-21T11:26:55;20.35;;;9.13;;
14799;SDS011;7491;57.750;11.970;2024-02-21T11:29:23;21.08;;;9.80;;
14799;SDS011;7491;57.750;11.970;2024-02-21T11:31:52;22.25;;;10.70;;
14799;SDS011;7491;57.750;11.970;2024-02-21T11:34:19;21.42;;;10.10;;
14799;SDS011;7491;57.750;11.970;2024-02-21T11:36:46;24.38;;;10.80;;
14799;SDS011;7491;57.750;11.970;2024-02-21T11:39:17;27.33;;;11.07;;
14799;SDS011;7491;57.750;11.970;2024-02-21T11:41:46;18.40;;;9.45;;
14799;SDS011;7491;57.750;11.970;2024-02-21T11:44:13;20.45;;;9.35;;
14799;SDS011;7491;57.750;11.970;2024-02-21T11:46:40;27.38;;;9.80;;
14799;SDS011;7491;57.750;11.970;2024-02-21T11:49:08;21.27;;;9.10;;
14799;SDS011;7491;57.750;11.970;2024-02-21T11:51:36;23.65;;;10.68;;
14799;SDS011;7491;57.750;11.970;2024-02-21T11:54:02;24.63;;;10.27;;
14799;SDS011;7491;57.750;11.970;2024-02-21T11:56:30;23.75;;;9.48;;
14799;SDS011;7491;57.750;11.970;2024-02-21T11:58:58;25.30;;;11.50;;
14799;SDS011;7491;57.750;11.970;2024-02-21T12:01:25;22.23;;;9.13;;
14799;SDS011;7491;57.750;11.970;2024-02-21T12:03:52;22.05;;;12.00;;
14799;SDS011;7491;57.750;11.970;2024-02-21T12:06:20;19.52;;;9.45;;
14799;SDS011;7491;57.750;11.970;2024-02-21T12:08:47;20.95;;;9.70;;
14799;SDS011;7491;57.750;11.970;2024-02-21T12:11:20;22.80;;;8.57;;
14799;SDS011;7491;57.750;11.970;2024-02-21T12:13:48;20.67;;;9.00;;
14799;SDS011;7491;57.750;11.970;2024-02-21T12:16:25;16.42;;;9.15;;
14799;SDS011;7491;57.750;11.970;2024-02-21T12:18:53;18.45;;;9.25;;
14799;SDS011;7491;57.750;11.970;2024-02-21T12:21:24;18.60;;;10.45;;
14799;SDS011;7491;57.750;11.970;2024-02-21T12:23:53;15.75;;;7.85;;
14799;SDS011;7491;57.750;11.970;2024-02-21T12:26:19;20.00;;;8.48;;
14799;SDS011;7491;57.750;11.970;2024-02-21T12:28:46;13.63;;;7.72;;
14799;SDS011;7491;57.750;11.970;2024-02-21T12:31:13;15.32;;;7.88;;
14799;SDS011;7491;57.750;11.970;2024-02-21T12:33:41;14.40;;;7.40;;
14799;SDS011;7491;57.750;11.970;2024-02-21T12:36:08;15.95;;;7.72;;
14799;SDS011;7491;57.750;11.970;2024-02-21T12:38:36;13.88;;;7.70;;
14799;SDS011;7491;57.750;11.970;2024-02-21T12:41:03;11.15;;;7.25;;
14799;SDS011;7491;57.750;11.970;2024-02-21T12:43:29;11.48;;;6.97;;
14799;SDS011;7491;57.750;11.970;2024-02-21T12:45:56;11.48;;;7.30;;
14799;SDS011;7491;57.750;11.970;2024-02-21T12:48:23;11.63;;;6.95;;
14799;SDS011;7491;57.750;11.970;2024-02-21T12:50:50;14.13;;;6.70;;
14799;SDS011;7491;57.750;11.970;2024-02-21T12:53:17;13.43;;;7.07;;
14799;SDS011;7491;57.750;11.970;2024-02-21T12:55:47;12.60;;;7.15;;
14799;SDS011;7491;57.750;11.970;2024-02-21T12:58:14;13.55;;;7.80;;
14799;SDS011;7491;57.750;11.970;2024-02-21T13:00:41;13.93;;;7.70;;
14799;SDS011;7491;57.750;11.970;2024-02-21T13:03:08;13.55;;;7.25;;
14799;SDS011;7491;57.750;11.970;2024-02-21T13:05:35;10.73;;;6.38;;
14799;SDS011;7491;57.750;11.970;2024-02-21T13:08:04;11.20;;;6.15;;
14799;SDS011;7491;57.750;11.970;2024-02-21T13:10:31;9.88;;;6.10;;
14799;SDS011;7491;57.750;11.970;2024-02-21T13:13:00;8.27;;;5.70;;
14799;SDS011;7491;57.750;11.970;2024-02-21T13:15:26;9.70;;;5.95;;
14799;SDS011;7491;57.750;11.970;2024-02-21T13:17:54;7.18;;;5.43;;
14799;SDS011;7491;57.750;11.970;2024-02-21T13:20:21;10.52;;;5.65;;
14799;SDS011;7491;57.750;11.970;2024-02-21T13:22:47;19.98;;;10.48;;
14799;SDS011;7491;57.750;11.970;2024-02-21T13:25:14;17.33;;;9.68;;
14799;SDS011;7491;57.750;11.970;2024-02-21T13:27:45;18.70;;;9.65;;
14799;SDS011;7491;57.750;11.970;2024-02-21T13:30:14;10.18;;;6.60;;
14799;SDS011;7491;57.750;11.970;2024-02-21T13:32:43;10.65;;;5.60;;
14799;SDS011;7491;57.750;11.970;2024-02-21T13:35:11;9.15;;;5.47;;
14799;SDS011;7491;57.750;11.970;2024-02-21T13:37:38;10.10;;;5.78;;
14799;SDS011;7491;57.750;11.970;2024-02-21T13:40:05;11.20;;;6.22;;
14799;SDS011;7491;57.750;11.970;2024-02-21T13:42:34;9.98;;;5.93;;
14799;SDS011;7491;57.750;11.970;2024-02-21T13:45:00;11.45;;;5.30;;
14799;SDS011;7491;57.750;11.970;2024-02-21T13:47:29;9.13;;;5.60;;
14799;SDS011;7491;57.750;11.970;2024-02-21T13:49:56;11.60;;;5.20;;
14799;SDS011;7491;57.750;11.970;2024-02-21T13:52:22;14.13;;;6.43;;
14799;SDS011;7491;57.750;11.970;2024-02-21T13:54:51;9.45;;;6.10;;
14799;SDS011;7491;57.750;11.970;2024-02-21T13:57:18;14.10;;;8.32;;
14799;SDS011;7491;57.750;11.970;2024-02-21T13:59:45;13.13;;;7.95;;
14799;SDS011;7491;57.750;11.970;2024-02-21T14:02:11;9.52;;;5.10;;
14799;SDS011;7491;57.750;11.970;2024-02-21T14:04:40;8.23;;;5.00;;
14799;SDS011;7491;57.750;11.970;2024-02-21T14:07:07;8.80;;;5.70;;
14799;SDS011;7491;57.750;11.970;2024-02-21T14:09:34;7.97;;;4.25;;
14799;SDS011;7491;57.750;11.970;2024-02-21T14:12:01;9.93;;;5.35;;
14799;SDS011;7491;57.750;11.970;2024-02-21T14:14:33;7.90;;;4.70;;
14799;SDS011;7491;57.750;11.970;2024-02-21T14:17:00;9.88;;;4.45;;
14799;SDS011;7491;57.750;11.970;2024-02-21T14:19:26;5.78;;;4.47;;
14799;SDS011;7491;57.750;11.970;2024-02-21T14:21:54;8.73;;;5.18;;
14799;SDS011;7491;57.750;11.970;2024-02-21T14:24:21;9.02;;;4.30;;
14799;SDS011;7491;57.750;11.970;2024-02-21T14:26:48;15.60;;;3.80;;
14799;SDS011;7491;57.750;11.970;2024-02-21T14:29:15;7.32;;;4.20;;
14799;SDS011;7491;57.750;11.970;2024-02-21T14:31:41;6.30;;;3.92;;
14799;SDS011;7491;57.750;11.970;2024-02-21T14:34:08;9.05;;;4.63;;
14799;SDS011;7491;57.750;11.970;2024-02-21T14:36:35;8.07;;;3.70;;
14799;SDS011;7491;57.750;11.970;2024-02-21T14:39:03;6.70;;;2.80;;